Time;durP1;ratioP1;P1;durP2;ratioP2;P2;SDS_P1;SDS_P2;PMS_P1;PMS_P2;Temp;Humidity;BMP_temperature;BMP_pressure;BME280_temperature;BME280_humidity;BME280_pressure;Samples;Min_cycle;Max_cycle;Signal;HPM_P1;HPM_P2
2023/04/28 00:02:23;;;;;;;3.20;2.10;;;2.90;99.90;1.90;100691;;;;588270;243;24107;-76
2023/04/28 00:04:51;;;;;;;4.10;2.00;;;2.90;99.90;1.80;100683;;;;588106;243;24122;-75
2023/04/28 00:07:19;;;;;;;4.60;1.87;;;2.90;99.90;1.80;100681;;;;588698;244;24131;-76
2023/04/28 00:09:48;;;;;;;3.40;1.87;;;2.80;99.90;1.80;100687;;;;588536;243;24046;-76
2023/04/28 00:12:16;;;;;;;3.10;2.57;;;2.80;99.90;1.80;100692;;;;588605;243;25109;-76
2023/04/28 00:14:44;;;;;;;3.33;1.93;;;2.80;99.90;1.70;100690;;;;588735;243;24079;-79
2023/04/28 00:17:11;;;;;;;3.10;2.27;;;2.80;99.90;1.70;100689;;;;588360;243;24061;-78
2023/04/28 00:19:39;;;;;;;5.00;2.03;;;2.70;99.90;1.70;100688;;;;588288;243;24082;-81
2023/04/28 00:22:07;;;;;;;2.87;2.17;;;2.70;99.90;1.60;100687;;;;588251;243;24097;-80
2023/04/28 00:24:35;;;;;;;4.27;2.20;;;2.70;99.90;1.60;100688;;;;587998;244;24063;-77
2023/04/28 00:27:03;;;;;;;4.83;1.77;;;2.60;99.90;1.60;100698;;;;587829;243;24040;-80
2023/04/28 00:29:31;;;;;;;2.57;2.03;;;2.60;99.90;1.60;100699;;;;587785;243;24119;-81
2023/04/28 00:31:59;;;;;;;5.63;1.90;;;2.60;99.90;1.50;100696;;;;587984;243;24048;-81
2023/04/28 00:34:28;;;;;;;3.03;2.20;;;2.60;99.90;1.60;100709;;;;587773;243;24061;-76
2023/04/28 00:36:55;;;;;;;4.77;1.90;;;2.60;99.90;1.60;100700;;;;587935;244;24059;-77
2023/04/28 00:39:26;;;;;;;2.67;1.80;;;2.60;99.90;1.60;100699;;;;588309;244;24091;-76
2023/04/28 00:41:51;;;;;;;3.62;2.42;;;2.60;99.90;1.60;100697;;;;582643;244;35136;-80
2023/04/28 00:44:19;;;;;;;3.90;1.50;;;2.60;99.90;1.60;100699;;;;588302;238;24065;-80
2023/04/28 00:46:47;;;;;;;4.80;1.90;;;2.60;99.90;1.60;100691;;;;588265;243;24145;-82
2023/04/28 00:49:18;;;;;;;3.37;1.97;;;2.60;99.90;1.60;100691;;;;579303;245;24079;-81
2023/04/28 00:51:46;;;;;;;3.20;1.83;;;2.60;99.90;1.60;100694;;;;579291;244;24047;-82
2023/04/28 00:54:14;;;;;;;4.17;2.23;;;2.60;99.90;1.60;100692;;;;589663;237;24045;-80
2023/04/28 00:56:47;;;;;;;3.80;1.87;;;2.60;99.90;1.50;100697;;;;579992;244;24072;-81
2023/04/28 00:59:12;;;;;;;2.63;1.60;;;2.60;99.90;1.50;100690;;;;580853;242;24100;-79
2023/04/28 01:01:40;;;;;;;8.90;2.60;;;2.50;99.90;1.50;100685;;;;580596;242;24064;-78
2023/04/28 01:04:11;;;;;;;2.53;2.20;;;2.50;99.90;1.50;100690;;;;592391;241;24049;-78
2023/04/28 01:06:40;;;;;;;3.73;2.27;;;2.50;99.90;1.50;100688;;;;571735;247;24101;-80
2023/04/28 01:09:06;;;;;;;3.67;2.00;;;2.50;99.90;1.50;100692;;;;571666;247;25140;-80
2023/04/28 01:11:33;;;;;;;4.83;2.17;;;2.50;99.90;1.50;100688;;;;580397;242;24052;-79
2023/04/28 01:14:01;;;;;;;4.03;1.83;;;2.50;99.90;1.50;100686;;;;573564;246;24035;-81
2023/04/28 01:16:31;;;;;;;7.73;2.10;;;2.50;99.90;1.50;100692;;;;575397;246;24104;-80
2023/04/28 01:18:56;;;;;;;2.33;2.10;;;2.50;99.90;1.50;100689;;;;575801;246;24120;-79
2023/04/28 01:21:31;;;;;;;4.17;2.23;;;2.60;99.90;1.50;100690;;;;575490;246;24050;-80
2023/04/28 01:23:55;;;;;;;6.17;2.10;;;2.60;99.90;1.60;100687;;;;584463;245;24062;-80
2023/04/28 01:26:23;;;;;;;3.57;2.10;;;2.60;99.90;1.50;100686;;;;575715;246;24073;-76
2023/04/28 01:28:51;;;;;;;4.53;1.87;;;2.60;99.90;1.60;100693;;;;575033;247;24047;-77
2023/04/28 01:31:19;;;;;;;2.53;2.13;;;2.60;99.90;1.60;100689;;;;574894;247;24055;-76
2023/04/28 01:33:47;;;;;;;2.97;2.40;;;2.60;99.90;1.60;100685;;;;574837;247;24094;-80
2023/04/28 01:36:15;;;;;;;4.57;2.23;;;2.60;99.90;1.60;100701;;;;575009;247;24076;-80
2023/04/28 01:38:42;;;;;;;4.37;2.30;;;2.60;99.90;1.60;100693;;;;574845;247;24084;-80
2023/04/28 01:41:10;;;;;;;3.87;2.10;;;2.60;99.90;1.60;100694;;;;584510;245;24048;-81
2023/04/28 01:43:38;;;;;;;2.30;2.10;;;2.60;99.90;1.60;100694;;;;575199;247;24059;-81
2023/04/28 01:46:06;;;;;;;5.37;2.30;;;2.60;99.90;1.60;100696;;;;575176;247;24052;-79
2023/04/28 01:48:37;;;;;;;5.77;2.03;;;2.60;99.90;1.60;100697;;;;575133;247;24058;-77
2023/04/28 01:51:02;;;;;;;2.37;2.20;;;2.60;99.90;1.60;100691;;;;575554;247;24109;-75
2023/04/28 01:53:30;;;;;;;6.10;2.10;;;2.60;99.90;1.60;100694;;;;575177;247;24050;-79
2023/04/28 01:55:58;;;;;;;4.13;2.50;;;2.60;99.90;1.60;100694;;;;575136;247;24067;-77
2023/04/28 01:58:26;;;;;;;5.17;2.57;;;2.60;99.90;1.60;100694;;;;574962;247;24056;-77
2023/04/28 02:00:54;;;;;;;2.97;2.63;;;2.60;99.90;1.60;100695;;;;572905;247;24077;-76
2023/04/28 02:03:22;;;;;;;2.53;1.80;;;2.50;99.90;1.50;100695;;;;575210;246;24057;-78
2023/04/28 02:05:50;;;;;;;4.10;2.30;;;2.50;99.90;1.50;100691;;;;576112;246;24122;-78
2023/04/28 02:08:18;;;;;;;2.87;2.53;;;2.50;99.90;1.60;100697;;;;575709;246;24079;-76
2023/04/28 02:10:46;;;;;;;3.10;2.30;;;2.50;99.90;1.50;100699;;;;585291;245;24046;-76
2023/04/28 02:13:15;;;;;;;3.77;2.27;;;2.50;99.90;1.50;100684;;;;576223;246;24040;-76
2023/04/28 02:15:42;;;;;;;3.53;2.30;;;2.50;99.90;1.50;100696;;;;575676;246;24047;-77
2023/04/28 02:18:10;;;;;;;6.57;2.50;;;2.50;99.90;1.50;100687;;;;576047;246;24047;-81
2023/04/28 02:20:38;;;;;;;3.13;2.47;;;2.50;99.90;1.50;100691;;;;585031;245;24043;-76
2023/04/28 02:23:05;;;;;;;5.70;2.67;;;2.50;99.90;1.40;100694;;;;575415;246;24131;-78
2023/04/28 02:25:33;;;;;;;4.83;2.10;;;2.50;99.90;1.40;100691;;;;575400;246;24089;-78
2023/04/28 02:28:02;;;;;;;7.30;2.47;;;2.50;99.90;1.40;100688;;;;575386;246;24066;-81
2023/04/28 02:30:29;;;;;;;5.90;2.43;;;2.40;99.90;1.40;100690;;;;575164;246;24048;-79
2023/04/28 02:32:57;;;;;;;5.27;2.70;;;2.40;99.90;1.40;100696;;;;575006;246;24062;-77
2023/04/28 02:35:25;;;;;;;4.47;2.73;;;2.40;99.90;1.40;100695;;;;575215;246;24080;-77
2023/04/28 02:37:53;;;;;;;5.10;2.97;;;2.40;99.90;1.40;100698;;;;575493;246;24150;-76
2023/04/28 02:40:21;;;;;;;3.40;2.23;;;2.40;99.90;1.40;100698;;;;575256;247;24061;-78
2023/04/28 02:42:49;;;;;;;4.70;3.03;;;2.40;99.90;1.40;100696;;;;584100;246;24164;-77
2023/04/28 02:45:17;;;;;;;5.37;3.20;;;2.40;99.90;1.40;100697;;;;574679;247;24098;-76
2023/04/28 02:47:45;;;;;;;5.03;2.87;;;2.40;99.90;1.40;100697;;;;574957;247;24075;-75
2023/04/28 02:50:13;;;;;;;6.90;2.77;;;2.40;99.90;1.40;100702;;;;574981;247;24115;-76
2023/04/28 02:52:41;;;;;;;5.50;2.20;;;2.40;99.90;1.40;100701;;;;575283;247;24055;-77
2023/04/28 02:55:09;;;;;;;7.20;3.00;;;2.40;99.90;1.40;100697;;;;575107;247;24060;-77
2023/04/28 02:57:37;;;;;;;5.70;2.50;;;2.40;99.90;1.40;100696;;;;575239;247;24071;-76
2023/04/28 03:00:05;;;;;;;3.63;2.60;;;2.40;99.90;1.40;100697;;;;575507;247;24112;-76
2023/04/28 03:02:33;;;;;;;8.40;2.80;;;2.40;99.90;1.30;100692;;;;575971;247;25275;-77
2023/04/28 03:05:01;;;;;;;3.17;2.57;;;2.40;99.90;1.30;100692;;;;575198;247;25088;-79
2023/04/28 03:07:29;;;;;;;4.27;2.60;;;2.30;99.90;1.30;100698;;;;575259;247;24040;-80
2023/04/28 03:09:57;;;;;;;2.90;2.43;;;2.30;99.90;1.30;100696;;;;575727;247;24073;-77
2023/04/28 03:12:25;;;;;;;4.80;2.37;;;2.30;99.90;1.30;100694;;;;584101;246;24139;-80
2023/04/28 03:14:53;;;;;;;3.83;2.87;;;2.30;99.90;1.30;100699;;;;575121;246;24108;-81
2023/04/28 03:17:21;;;;;;;4.53;2.40;;;2.30;99.90;1.30;100690;;;;576131;246;24077;-78
2023/04/28 03:19:49;;;;;;;3.10;2.50;;;2.30;99.90;1.40;100697;;;;575665;246;24089;-78
2023/04/28 03:22:17;;;;;;;3.23;2.53;;;2.30;99.90;1.40;100689;;;;575577;246;24057;-76
2023/04/28 03:24:45;;;;;;;2.73;1.90;;;2.30;99.90;1.40;100691;;;;575409;246;24083;-77
2023/04/28 03:27:13;;;;;;;4.57;2.40;;;2.40;99.90;1.40;100691;;;;575430;246;24085;-80
2023/04/28 03:29:41;;;;;;;5.60;2.10;;;2.40;99.90;1.40;100694;;;;575399;246;24041;-80
2023/04/28 03:32:09;;;;;;;3.87;2.50;;;2.40;99.90;1.40;100693;;;;575738;246;24056;-80
2023/04/28 03:34:37;;;;;;;6.40;2.40;;;2.40;99.90;1.40;100701;;;;575437;246;24057;-78
2023/04/28 03:37:06;;;;;;;2.27;2.07;;;2.40;99.90;1.50;100700;;;;575464;246;24078;-80
2023/04/28 03:39:33;;;;;;;7.20;2.70;;;2.50;99.90;1.50;100705;;;;575419;246;24106;-79
2023/04/28 03:42:01;;;;;;;5.77;2.37;;;2.50;99.90;1.60;100708;;;;575454;246;24071;-80
2023/04/28 03:44:29;;;;;;;4.10;2.63;;;2.50;99.90;1.60;100698;;;;584349;245;24131;-79
2023/04/28 03:47:00;;;;;;;5.83;2.30;;;2.50;99.90;1.60;100699;;;;575119;246;24048;-79
2023/04/28 03:49:25;;;;;;;3.87;2.80;;;2.60;99.90;1.70;100712;;;;575467;246;24107;-80
2023/04/28 03:51:53;;;;;;;6.20;2.33;;;2.60;99.90;1.70;100691;;;;575095;247;24098;-80
2023/04/28 03:54:21;;;;;;;4.77;2.67;;;2.70;99.90;1.80;100700;;;;574903;247;24058;-78
2023/04/28 03:56:48;;;;;;;4.63;2.30;;;2.70;99.90;1.80;100696;;;;575349;247;24079;-79
2023/04/28 03:59:16;;;;;;;3.47;2.33;;;2.80;99.90;1.90;100703;;;;574764;247;24058;-79
2023/04/28 04:01:44;;;;;;;5.47;3.00;;;2.80;99.90;2.00;100702;;;;575116;247;24051;-76
2023/04/28 04:04:13;;;;;;;3.60;2.00;;;3.00;99.90;2.10;100701;;;;575139;247;24067;-76
2023/04/28 04:06:41;;;;;;;5.10;1.77;;;3.00;99.90;2.20;100695;;;;575151;247;24045;-76
2023/04/28 04:09:12;;;;;;;3.37;2.03;;;3.10;99.90;2.40;100707;;;;575264;247;24052;-78
2023/04/28 04:11:37;;;;;;;4.77;2.40;;;3.40;99.90;2.50;100702;;;;575355;246;24100;-76
2023/04/28 04:14:06;;;;;;;4.23;2.00;;;3.40;99.90;2.60;100712;;;;584038;246;24115;-76
2023/04/28 04:16:33;;;;;;;2.30;1.90;;;3.50;99.90;2.80;100719;;;;574888;247;24075;-78
2023/04/28 04:19:01;;;;;;;6.43;2.97;;;3.60;99.90;3.00;100716;;;;574839;247;24077;-78
2023/04/28 04:21:30;;;;;;;4.53;2.63;;;3.90;99.90;3.80;100715;;;;574996;247;24072;-76
2023/04/28 04:23:57;;;;;;;6.07;2.93;;;4.60;99.90;5.50;100732;;;;575322;247;24060;-76
2023/04/28 04:26:25;;;;;;;3.37;2.60;;;6.10;99.90;7.20;100735;;;;575289;245;24046;-76
2023/04/28 04:28:53;;;;;;;7.70;3.07;;;7.90;99.90;8.90;100736;;;;576157;246;25104;-76
2023/04/28 04:31:21;;;;;;;5.27;3.40;;;9.60;99.90;10.30;100747;;;;575681;246;24080;-77
2023/04/28 04:33:49;;;;;;;9.90;4.10;;;11.20;99.90;11.60;100747;;;;572087;246;24075;-77
2023/04/28 04:36:17;;;;;;;8.30;4.47;;;13.60;99.90;12.70;100750;;;;576367;246;24106;-76
2023/04/28 04:38:46;;;;;;;7.37;3.67;;;14.70;98.00;13.80;100757;;;;576267;246;24040;-76
2023/04/28 04:41:15;;;;;;;5.00;3.17;;;15.60;94.30;14.60;100754;;;;576243;246;24051;-75
2023/04/28 04:43:42;;;;;;;7.67;2.90;;;15.60;94.20;15.50;100759;;;;576124;246;24082;-76
2023/04/28 04:46:10;;;;;;;5.70;2.33;;;16.60;91.10;16.50;100763;;;;571281;246;24128;-76
2023/04/28 04:48:38;;;;;;;6.17;2.73;;;17.60;83.70;17.20;100765;;;;575388;246;24062;-76
2023/04/28 04:51:06;;;;;;;12.57;2.70;;;18.30;78.90;17.70;100761;;;;575563;246;24087;-77
2023/04/28 04:53:34;;;;;;;7.40;2.80;;;18.90;74.50;18.60;100768;;;;575460;246;23071;-76
2023/04/28 04:56:05;;;;;;;6.80;2.70;;;19.70;69.80;19.30;100777;;;;573128;246;23069;-77
2023/04/28 04:58:30;;;;;;;6.80;2.30;;;20.30;66.20;20.30;100783;;;;575011;246;23104;-77
2023/04/28 05:00:58;;;;;;;3.40;2.57;;;21.20;61.00;20.60;100783;;;;575453;246;24108;-76
2023/04/28 05:03:26;;;;;;;7.30;2.83;;;21.80;60.10;21.20;100786;;;;575723;247;24050;-77
2023/04/28 05:05:54;;;;;;;7.20;2.43;;;22.80;56.90;21.70;100787;;;;579415;246;24059;-77
2023/04/28 05:08:23;;;;;;;6.33;2.20;;;23.40;54.10;22.40;100786;;;;575606;247;24056;-76
2023/04/28 05:10:52;;;;;;;5.53;2.27;;;23.90;53.20;22.80;100783;;;;575653;247;24099;-77
2023/04/28 05:13:20;;;;;;;6.63;1.90;;;23.80;53.20;23.30;100797;;;;575585;247;24117;-78
2023/04/28 05:15:48;;;;;;;4.50;2.23;;;24.30;52.40;23.70;100797;;;;570998;247;23081;-77
2023/04/28 05:18:16;;;;;;;6.60;2.27;;;24.80;50.70;24.50;100801;;;;575197;247;24055;-77
2023/04/28 05:20:43;;;;;;;8.43;2.70;;;25.40;49.10;25.30;100800;;;;575362;247;23085;-78
2023/04/28 05:23:11;;;;;;;6.20;2.20;;;26.10;47.70;25.70;100801;;;;575192;247;23066;-78
2023/04/28 05:25:40;;;;;;;8.17;2.33;;;26.60;47.00;25.90;100808;;;;575329;247;24083;-77
2023/04/28 05:28:10;;;;;;;5.37;2.13;;;26.90;46.70;26.70;100811;;;;575280;247;23097;-77
2023/04/28 05:30:38;;;;;;;6.35;2.42;;;27.50;45.30;27.20;100820;;;;565846;247;35123;-76
2023/04/28 05:33:06;;;;;;;3.50;2.00;;;28.10;44.80;27.40;100820;;;;575338;247;23058;-77
2023/04/28 05:35:34;;;;;;;7.03;1.97;;;28.40;43.60;27.90;100812;;;;575696;247;23094;-77
2023/04/28 05:38:02;;;;;;;17.42;2.55;;;28.80;43.50;28.50;100825;;;;575897;245;24117;-77
2023/04/28 05:40:30;;;;;;;12.68;2.80;;;29.30;42.30;28.70;100826;;;;577004;246;24068;-77
2023/04/28 05:42:58;;;;;;;10.75;2.80;;;29.60;41.60;28.80;100827;;;;576845;246;23093;-78
2023/04/28 05:45:25;;;;;;;5.82;2.03;;;29.80;41.00;29.10;100836;;;;576520;246;23062;-76
2023/04/28 05:47:53;;;;;;;5.05;2.22;;;30.10;40.50;29.30;100836;;;;571572;246;23070;-77
2023/04/28 05:50:21;;;;;;;4.82;1.87;;;30.20;40.50;29.80;100838;;;;575851;246;23091;-77
2023/04/28 05:52:49;;;;;;;5.43;2.20;;;30.70;39.70;30.10;100836;;;;575724;246;24090;-78
2023/04/28 05:55:17;;;;;;;4.43;1.92;;;31.00;39.10;30.20;100839;;;;575879;246;24097;-76
2023/04/28 05:57:46;;;;;;;30.23;3.35;;;31.00;38.70;30.10;100838;;;;575536;246;23090;-77
2023/04/28 06:00:15;;;;;;;8.98;3.03;;;31.20;38.40;30.50;100837;;;;575419;246;23061;-78
2023/04/28 06:02:42;;;;;;;9.13;2.05;;;31.20;38.30;30.70;100839;;;;575083;246;23070;-75
2023/04/28 06:05:10;;;;;;;9.65;2.20;;;31.60;38.00;30.80;100830;;;;575927;246;23068;-77
2023/04/28 06:07:38;;;;;;;4.75;2.03;;;31.60;37.80;31.10;100833;;;;575866;246;23078;-77
2023/04/28 06:10:06;;;;;;;4.28;2.10;;;31.90;37.60;31.70;100838;;;;575863;246;23054;-77
2023/04/28 06:12:35;;;;;;;4.87;1.95;;;32.30;37.20;32.00;100831;;;;575477;246;23066;-78
2023/04/28 06:15:02;;;;;;;13.00;2.58;;;32.60;36.70;32.10;100838;;;;575670;247;23088;-77
2023/04/28 06:17:31;;;;;;;7.55;2.08;;;32.90;36.40;32.20;100844;;;;580183;242;24063;-79
2023/04/28 06:19:58;;;;;;;14.80;2.45;;;33.00;36.40;32.20;100848;;;;580956;242;23109;-82
2023/04/28 06:22:26;;;;;;;4.75;2.00;;;33.10;36.30;32.80;100852;;;;580613;246;23108;-77
2023/04/28 06:24:54;;;;;;;7.20;2.33;;;33.50;36.00;33.40;100854;;;;579915;242;23063;-77
2023/04/28 06:27:22;;;;;;;4.22;2.62;;;34.00;35.80;33.90;100853;;;;580675;246;23091;-77
2023/04/28 06:29:50;;;;;;;3.90;2.08;;;34.50;35.20;33.90;100850;;;;579756;242;23075;-79
2023/04/28 06:32:18;;;;;;;9.27;2.30;;;34.70;34.70;34.00;100848;;;;569559;247;24128;-76
2023/04/28 06:34:45;;;;;;;7.03;2.45;;;34.80;34.30;34.40;100845;;;;580155;242;23082;-77
2023/04/28 06:37:13;;;;;;;8.85;2.40;;;35.10;34.10;35.00;100844;;;;581066;246;23095;-78
2023/04/28 06:39:41;;;;;;;9.35;2.35;;;35.60;34.20;35.60;100855;;;;580380;242;23053;-77
2023/04/28 06:42:10;;;;;;;5.70;2.10;;;36.70;33.20;36.10;100853;;;;581212;246;24123;-80
2023/04/28 06:44:39;;;;;;;10.52;2.33;;;37.00;32.20;36.50;100849;;;;580340;242;23038;-80
2023/04/28 06:47:07;;;;;;;6.35;2.00;;;37.10;32.00;36.50;100859;;;;581223;246;23077;-79
2023/04/28 06:49:35;;;;;;;4.75;1.90;;;37.10;31.80;36.30;100858;;;;580290;241;23069;-79
2023/04/28 06:52:03;;;;;;;4.90;2.00;;;37.10;31.90;36.70;100853;;;;581913;246;24225;-77
2023/04/28 06:54:31;;;;;;;6.55;2.05;;;37.30;31.50;37.10;100859;;;;580860;242;23064;-78
2023/04/28 06:56:59;;;;;;;4.90;2.08;;;37.60;30.90;37.10;100856;;;;581361;246;23201;-81
2023/04/28 06:59:27;;;;;;;3.58;1.50;;;37.70;30.60;37.40;100863;;;;580440;242;23112;-77
2023/04/28 07:01:55;;;;;;;3.17;1.80;;;37.90;30.70;37.40;100852;;;;580920;244;35130;-78
2023/04/28 07:04:23;;;;;;;4.87;1.52;;;38.00;30.30;37.70;100856;;;;575080;246;23073;-77
2023/04/28 07:06:51;;;;;;;3.90;1.73;;;38.50;30.20;37.90;100861;;;;575038;246;24075;-77
2023/04/28 07:09:19;;;;;;;5.37;1.85;;;38.50;30.20;38.30;100859;;;;574770;246;23108;-78
2023/04/28 07:11:47;;;;;;;3.22;1.77;;;38.80;30.10;38.30;100853;;;;574762;246;23090;-78
2023/04/28 07:14:16;;;;;;;2.22;1.77;;;38.70;30.30;38.20;100863;;;;574728;246;23091;-78
2023/04/28 07:16:44;;;;;;;4.90;2.33;;;38.80;29.80;38.20;100857;;;;574804;246;23104;-78
2023/04/28 07:19:12;;;;;;;14.02;3.78;;;38.80;29.40;38.50;100859;;;;585816;245;23143;-78
2023/04/28 07:21:40;;;;;;;4.45;2.12;;;38.90;29.60;38.50;100854;;;;574359;246;23112;-78
2023/04/28 07:24:08;;;;;;;5.15;3.05;;;38.90;29.60;38.90;100859;;;;574511;246;23057;-77
2023/04/28 07:26:35;;;;;;;11.00;2.78;;;39.20;29.30;39.50;100851;;;;574265;246;23066;-78
2023/04/28 07:29:03;;;;;;;21.45;3.65;;;39.70;29.10;39.90;100855;;;;574089;246;23106;-78
2023/04/28 07:31:31;;;;;;;9.43;2.50;;;40.20;29.20;40.20;100844;;;;569317;246;35116;-80
2023/04/28 07:33:59;;;;;;;9.52;2.50;;;40.70;28.70;40.50;100848;;;;574268;246;23051;-79
2023/04/28 07:36:27;;;;;;;2.92;2.12;;;40.90;28.80;40.30;100845;;;;574601;246;24077;-79
2023/04/28 07:38:55;;;;;;;6.15;2.17;;;41.00;28.40;40.10;100846;;;;574664;246;23070;-81
2023/04/28 07:41:23;;;;;;;9.55;2.67;;;40.80;28.20;38.20;100844;;;;574621;246;23223;-77
2023/04/28 07:43:52;;;;;;;9.43;2.00;;;37.70;28.50;35.80;100833;;;;574623;246;24133;-78
2023/04/28 07:46:21;;;;;;;10.20;4.30;;;35.90;29.60;34.00;100834;;;;574503;246;23062;-77
2023/04/28 07:48:49;;;;;;;8.75;3.22;;;33.80;30.30;31.80;100839;;;;574507;246;24097;-77
2023/04/28 07:51:18;;;;;;;26.92;3.78;;;31.80;31.40;29.90;100839;;;;585382;245;23073;-76
2023/04/28 07:53:46;;;;;;;20.75;3.47;;;31.10;33.00;30.40;100830;;;;574224;246;23063;-76
2023/04/28 07:56:15;;;;;;;12.88;3.60;;;31.00;33.00;32.40;100825;;;;574145;246;23056;-77
2023/04/28 07:58:42;;;;;;;8.45;2.10;;;32.40;33.20;33.30;100839;;;;574293;246;24093;-78
2023/04/28 08:01:11;;;;;;;14.10;2.97;;;33.40;31.40;32.60;100825;;;;576884;244;23052;-77
2023/04/28 08:03:38;;;;;;;13.70;2.83;;;33.20;31.00;33.50;100834;;;;575411;245;23088;-77
2023/04/28 08:06:06;;;;;;;9.63;2.80;;;33.80;31.60;34.10;100828;;;;575452;246;24086;-76
2023/04/28 08:08:34;;;;;;;10.13;1.98;;;34.50;30.30;35.30;100828;;;;586568;244;23063;-76
2023/04/28 08:11:02;;;;;;;4.53;1.70;;;35.50;30.20;35.50;100838;;;;575220;246;23058;-78
2023/04/28 08:13:30;;;;;;;2.25;1.40;;;36.10;29.40;33.40;100831;;;;575155;246;23055;-77
2023/04/28 08:15:59;;;;;;;6.05;1.65;;;34.90;28.90;31.90;100826;;;;575250;246;23054;-77
2023/04/28 08:18:26;;;;;;;6.22;2.15;;;33.60;29.70;29.60;100835;;;;575218;246;23057;-77
2023/04/28 08:20:53;;;;;;;6.43;1.85;;;31.70;30.30;27.60;100827;;;;585710;245;24090;-76
2023/04/28 08:23:21;;;;;;;6.47;2.40;;;29.70;31.80;25.70;100828;;;;585898;245;23100;-77
2023/04/28 08:25:50;;;;;;;2.17;1.83;;;25.90;34.90;24.10;100828;;;;585716;245;23066;-77
2023/04/28 08:28:18;;;;;;;4.80;2.73;;;25.80;34.90;22.90;100827;;;;574757;246;24088;-76
2023/04/28 08:30:46;;;;;;;5.37;1.63;;;24.50;36.50;23.50;100816;;;;574458;246;23079;-76
2023/04/28 08:33:18;;;;;;;2.77;1.43;;;24.00;37.90;26.00;100825;;;;574313;246;24100;-77
2023/04/28 08:35:42;;;;;;;3.47;1.20;;;25.90;37.80;29.60;100822;;;;585801;245;23108;-78
2023/04/28 08:38:12;;;;;;;5.90;1.40;;;29.10;35.50;31.00;100825;;;;574630;246;24085;-77
2023/04/28 08:40:38;;;;;;;4.78;1.85;;;31.20;32.30;31.30;100825;;;;574465;246;23094;-77
2023/04/28 08:43:07;;;;;;;7.53;1.67;;;31.90;31.60;30.30;100829;;;;574605;246;23093;-76
2023/04/28 08:45:34;;;;;;;20.17;2.70;;;31.50;31.30;28.90;100820;;;;574555;246;24073;-77
2023/04/28 08:48:01;;;;;;;9.15;2.10;;;30.40;31.70;27.80;100815;;;;585387;245;23101;-78
2023/04/28 08:50:29;;;;;;;16.42;2.87;;;29.20;32.60;28.70;100810;;;;585784;245;23083;-77
2023/04/28 08:53:01;;;;;;;4.37;1.62;;;29.30;33.80;29.50;100812;;;;585516;245;23074;-76
2023/04/28 08:55:28;;;;;;;8.07;2.17;;;30.00;32.90;31.10;100812;;;;577255;246;23078;-78
2023/04/28 08:57:56;;;;;;;2.87;1.50;;;31.30;32.60;32.70;100810;;;;585547;244;23072;-79
2023/04/28 09:00:23;;;;;;;3.75;1.60;;;34.90;30.00;34.60;100812;;;;573984;246;23116;-77
2023/04/28 09:02:50;;;;;;;2.80;1.70;;;34.80;30.00;36.50;100805;;;;574129;246;23086;-78
2023/04/28 09:05:18;;;;;;;8.10;1.60;;;36.80;29.60;38.10;100812;;;;574511;246;23047;-78
2023/04/28 09:07:47;;;;;;;14.70;2.08;;;39.40;27.80;38.00;100812;;;;576921;246;23084;-79
2023/04/28 09:10:15;;;;;;;5.18;1.70;;;38.00;27.90;35.50;100819;;;;574467;246;24130;-77
2023/04/28 09:12:43;;;;;;;5.68;1.45;;;38.00;27.90;33.10;100818;;;;586203;244;23082;-77
2023/04/28 09:15:11;;;;;;;7.35;1.60;;;36.00;28.60;30.60;100815;;;;575856;245;23168;-78
2023/04/28 09:17:51;;;;;;;2.75;1.42;;;33.50;29.10;28.70;100817;;;;574755;246;23058;-80
2023/04/28 09:20:24;;;;;;;9.98;1.52;;;31.30;30.70;26.90;100821;;;;577186;246;23090;-79
2023/04/28 09:22:52;;;;;;;2.60;1.23;;;29.20;32.40;25.50;100821;;;;577403;243;23117;-81
2023/04/28 09:25:25;;;;;;;9.93;1.70;;;27.50;34.30;24.20;100809;;;;585811;245;23076;-81
2023/04/28 09:27:51;;;;;;;5.80;1.40;;;26.00;34.80;23.00;100803;;;;574827;246;24128;-82
2023/04/28 09:30:19;;;;;;;7.27;1.67;;;24.60;35.90;22.10;100806;;;;577004;246;23076;-82
2023/04/28 09:32:48;;;;;;;5.13;1.50;;;22.40;40.00;21.30;100802;;;;574584;246;24041;-80
2023/04/28 09:35:16;;;;;;;2.63;1.70;;;21.60;41.30;20.60;100802;;;;583718;240;24097;-80
2023/04/28 09:37:44;;;;;;;17.83;3.30;;;21.50;41.20;20.00;100804;;;;575329;246;24094;-80
2023/04/28 09:40:12;;;;;;;2.90;1.93;;;20.90;42.50;19.40;100804;;;;574831;240;24086;-77
2023/04/28 09:42:43;;;;;;;1.80;1.70;;;20.30;42.80;19.00;100805;;;;577194;246;24101;-79
2023/04/28 09:45:11;;;;;;;3.93;1.33;;;19.70;43.30;18.40;100806;;;;586129;245;24045;-77
2023/04/28 09:47:46;;;;;;;1.40;1.30;;;18.70;43.60;18.00;100797;;;;586114;245;24066;-77
2023/04/28 09:50:13;;;;;;;3.30;1.60;;;18.60;43.50;17.70;100797;;;;576222;246;24050;-77
2023/04/28 09:52:44;;;;;;;1.70;1.43;;;18.30;44.80;17.40;100793;;;;576630;244;24102;-76
2023/04/28 09:55:09;;;;;;;1.47;1.30;;;18.00;45.60;17.10;100783;;;;576525;246;24087;-76
2023/04/28 09:57:37;;;;;;;5.93;1.40;;;17.70;46.10;17.70;100783;;;;573878;246;24061;-76
2023/04/28 10:00:08;;;;;;;2.03;1.30;;;18.00;46.80;18.80;100777;;;;573817;246;24100;-77
2023/04/28 10:02:36;;;;;;;3.73;1.70;;;19.20;46.60;21.10;100784;;;;584854;240;24135;-76
2023/04/28 10:05:07;;;;;;;7.53;1.90;;;21.30;44.80;23.60;100779;;;;585136;245;23080;-77
2023/04/28 10:07:34;;;;;;;1.83;1.50;;;24.10;40.80;24.80;100784;;;;576707;246;24094;-77
2023/04/28 10:10:00;;;;;;;11.83;2.30;;;25.60;38.70;26.80;100784;;;;585528;240;23065;-78
2023/04/28 10:12:28;;;;;;;6.30;1.90;;;27.70;37.90;28.90;100777;;;;574281;246;23103;-77
2023/04/28 10:14:56;;;;;;;10.82;1.90;;;29.80;35.50;30.20;100784;;;;574231;246;23061;-78
2023/04/28 10:17:26;;;;;;;3.87;1.77;;;32.20;32.20;30.60;100782;;;;585043;245;24083;-76
2023/04/28 10:19:53;;;;;;;5.82;1.80;;;31.60;32.80;29.30;100775;;;;573951;246;23092;-77
2023/04/28 10:22:44;;;;;;;5.97;1.60;;;30.30;32.80;27.80;100780;;;;573797;246;23094;-76
2023/04/28 10:25:11;;;;;;;6.37;2.22;;;30.20;32.70;26.30;100778;;;;585913;243;23075;-76
2023/04/28 10:27:42;;;;;;;14.40;1.92;;;28.60;34.00;25.20;100775;;;;577472;245;23093;-76
2023/04/28 10:30:19;;;;;;;5.33;1.50;;;25.80;36.00;23.90;100770;;;;576812;246;23138;-77
2023/04/28 10:32:47;;;;;;;5.13;1.47;;;25.80;36.00;22.70;100771;;;;574602;246;23098;-78
2023/04/28 10:35:24;;;;;;;5.50;1.53;;;24.50;36.40;21.80;100770;;;;574510;246;23069;-78
2023/04/28 10:38:11;;;;;;;5.90;1.53;;;23.40;37.70;21.20;100767;;;;576817;246;23100;-78
2023/04/28 10:40:47;;;;;;;1.70;1.60;;;22.50;39.20;20.90;100766;;;;586178;245;24059;-76
2023/04/28 10:43:15;;;;;;;3.90;1.83;;;21.40;40.40;20.60;100764;;;;574736;246;24127;-77
2023/04/28 10:45:53;;;;;;;5.33;2.07;;;21.40;41.00;20.40;100761;;;;576968;246;24077;-77
2023/04/28 10:48:25;;;;;;;13.30;2.57;;;21.00;42.20;20.40;100760;;;;576940;246;24157;-78
2023/04/28 10:51:05;;;;;;;12.93;3.07;;;21.00;42.20;20.50;100759;;;;577718;246;23089;-77
2023/04/28 10:53:45;;;;;;;6.93;2.17;;;21.00;42.90;20.50;100764;;;;577089;246;24074;-77
2023/04/28 10:56:22;;;;;;;8.07;2.03;;;21.00;42.90;20.40;100764;;;;584032;245;24068;-77
2023/04/28 10:58:49;;;;;;;7.30;2.13;;;20.90;43.00;20.30;100759;;;;584004;240;24148;-78
2023/04/28 11:01:29;;;;;;;2.10;1.53;;;20.80;43.20;19.90;100761;;;;584076;245;24130;-77
2023/04/28 11:03:59;;;;;;;4.67;1.70;;;20.50;43.40;19.30;100754;;;;583844;245;24108;-77
2023/04/28 11:06:33;;;;;;;2.23;1.73;;;19.60;44.60;18.70;100749;;;;583550;245;24069;-76
2023/04/28 11:09:02;;;;;;;2.33;1.40;;;19.50;44.40;18.30;100750;;;;583754;245;23135;-77
2023/04/28 11:11:26;;;;;;;8.50;2.00;;;19.00;45.10;18.10;100746;;;;583212;245;23069;-76
2023/04/28 11:13:54;;;;;;;4.33;2.10;;;18.70;46.50;18.10;100747;;;;583205;245;24114;-78
2023/04/28 11:16:22;;;;;;;6.33;2.30;;;18.60;46.40;18.20;100740;;;;582124;246;24101;-76
2023/04/28 11:18:51;;;;;;;3.43;1.50;;;18.60;46.50;18.10;100743;;;;583304;245;24078;-76
2023/04/28 11:21:19;;;;;;;2.53;1.50;;;18.60;46.50;18.10;100743;;;;582962;245;23139;-75